Time;durP1;ratioP1;P1;durP2;ratioP2;P2;SDS_P1;SDS_P2;PMS_P1;PMS_P2;Temp;Humidity;BMP_temperature;BMP_pressure;BME280_temperature;BME280_humidity;BME280_pressure;Samples;Min_cycle;Max_cycle;Signal;HPM_P1;HPM_P2
2022/08/27 00:00:51;;;;;;;12.45;8.15;;;;;;;21.69;65.93;100399.59;5063669;28;20043;-27
2022/08/27 00:03:17;;;;;;;10.07;7.57;;;;;;;21.66;65.70;100398.84;5064165;28;20025;-27
2022/08/27 00:05:42;;;;;;;10.00;7.50;;;;;;;21.66;65.90;100389.94;5062587;28;20020;-27
2022/08/27 00:08:11;;;;;;;13.45;7.97;;;;;;;21.66;65.64;100397.97;5062316;28;20024;-27
2022/08/27 00:10:37;;;;;;;10.32;7.40;;;;;;;21.64;65.74;100395.38;5064077;28;20028;-27
2022/08/27 00:13:02;;;;;;;10.15;7.13;;;;;;;21.66;65.96;100404.22;5062860;28;20055;-26
2022/08/27 00:15:28;;;;;;;8.90;7.78;;;;;;;21.63;65.84;100403.53;5064436;28;20024;-26
2022/08/27 00:17:54;;;;;;;13.45;8.20;;;;;;;21.58;66.00;100401.16;5056089;28;20453;-27
2022/08/27 00:20:21;;;;;;;11.00;8.13;;;;;;;21.59;66.04;100402.88;5062830;28;20032;-27
2022/08/27 00:22:47;;;;;;;10.57;7.22;;;;;;;21.58;66.07;100397.59;5068118;28;20372;-27
2022/08/27 00:25:12;;;;;;;9.85;7.85;;;;;;;21.56;66.41;100402.16;5066420;28;20027;-26
2022/08/27 00:27:38;;;;;;;9.15;7.40;;;;;;;21.53;66.46;100396.03;5064543;28;20025;-26
2022/08/27 00:30:07;;;;;;;12.90;8.00;;;;;;;21.52;66.39;100401.50;5069377;28;20104;-27
2022/08/27 00:32:33;;;;;;;10.10;7.88;;;;;;;21.51;66.48;100395.25;5065964;28;20021;-26
2022/08/27 00:34:58;;;;;;;8.48;7.50;;;;;;;21.52;66.64;100396.13;5066628;28;20032;-27
2022/08/27 00:37:24;;;;;;;10.65;7.72;;;;;;;21.51;67.06;100394.41;5069970;28;20020;-27
2022/08/27 00:39:49;;;;;;;9.13;7.60;;;;;;;21.50;66.66;100398.03;5073069;28;20040;-27
2022/08/27 00:42:14;;;;;;;10.50;7.68;;;;;;;21.51;67.15;100394.41;5068037;28;20401;-26
2022/08/27 00:44:40;;;;;;;12.02;9.00;;;;;;;21.47;66.60;100390.19;5069266;28;20075;-27
2022/08/27 00:47:13;;;;;;;11.38;8.45;;;;;;;21.45;66.61;100384.91;5067849;28;20078;-27
2022/08/27 00:49:51;;;;;;;15.27;8.32;;;;;;;21.46;66.64;100391.13;5069023;28;20496;-27
2022/08/27 00:52:21;;;;;;;8.68;7.88;;;;;;;21.43;66.58;100388.63;5066995;28;20540;-26
2022/08/27 00:54:47;;;;;;;;;;;;;;;21.43;66.51;100383.25;5054427;28;20384;-26
2022/08/27 00:57:14;;;;;;;11.55;7.50;;;;;;;21.41;66.53;100384.22;5062291;28;19913;-26
2022/08/27 00:59:41;;;;;;;10.55;8.00;;;;;;;21.40;66.68;100379.81;5064941;28;20032;-27
2022/08/27 01:02:18;;;;;;;8.38;7.30;;;;;;;21.40;66.62;100377.13;5061667;28;20557;-26
2022/08/27 01:04:47;;;;;;;12.10;8.68;;;;;;;21.37;66.45;100382.69;5064884;28;20436;-27
2022/08/27 01:07:13;;;;;;;9.20;8.02;;;;;;;21.37;66.66;100385.34;5050177;28;20043;-26
2022/08/27 01:09:40;;;;;;;8.80;7.90;;;;;;;21.39;66.80;100390.63;5067951;28;20024;-27
2022/08/27 01:12:06;;;;;;;10.32;8.38;;;;;;;21.35;66.44;100408.75;5066518;28;20098;-27
2022/08/27 01:14:32;;;;;;;8.07;7.30;;;;;;;21.33;66.70;100407.94;5066811;28;20048;-27
2022/08/27 01:16:59;;;;;;;8.13;7.35;;;;;;;21.32;66.35;100416.97;5070612;28;20032;-26
2022/08/27 01:19:36;;;;;;;9.77;7.75;;;;;;;21.33;66.63;100416.00;5070004;28;21250;-26
2022/08/27 01:22:18;;;;;;;8.70;7.88;;;;;;;21.29;66.33;100422.50;5067994;28;20021;-26
2022/08/27 01:25:05;;;;;;;11.35;7.75;;;;;;;21.31;66.47;100414.38;5066320;28;20382;-28
2022/08/27 01:27:31;;;;;;;9.27;6.80;;;;;;;21.26;66.39;100420.00;5063529;28;21898;-26
2022/08/27 01:29:57;;;;;;;8.48;7.45;;;;;;;21.25;66.38;100419.16;5063219;28;20475;-27
2022/08/27 01:32:26;;;;;;;7.88;7.13;;;;;;;21.24;66.42;100414.72;5071558;28;20032;-27
2022/08/27 01:34:52;;;;;;;8.02;7.32;;;;;;;21.22;66.62;100421.13;5067251;28;20021;-27
2022/08/27 01:37:20;;;;;;;10.27;8.10;;;;;;;21.21;66.83;100427.44;5068738;28;20035;-27
2022/08/27 01:39:46;;;;;;;12.27;8.07;;;;;;;21.16;66.92;100430.38;5064740;28;20043;-26
2022/08/27 01:42:16;;;;;;;8.27;7.53;;;;;;;21.20;66.98;100426.56;5070448;28;20021;-26
2022/08/27 01:44:50;;;;;;;12.07;7.72;;;;;;;21.13;66.69;100434.13;5047964;28;20050;-26
2022/08/27 01:47:17;;;;;;;9.25;7.10;;;;;;;21.14;66.71;100441.19;5066852;28;20055;-26
2022/08/27 01:49:43;;;;;;;7.93;7.13;;;;;;;21.14;66.86;100446.56;5067117;28;20028;-26
2022/08/27 01:52:08;;;;;;;7.75;7.05;;;;;;;21.15;67.03;100453.66;5067606;28;20024;-27
2022/08/27 01:54:33;;;;;;;7.35;6.75;;;;;;;21.11;66.96;100452.09;5069768;28;20039;-26
2022/08/27 01:56:59;;;;;;;8.70;7.22;;;;;;;21.11;66.79;100457.47;5069776;28;20020;-27
2022/08/27 01:59:24;;;;;;;10.27;7.55;;;;;;;21.13;67.65;100450.22;5064037;28;20054;-26
2022/08/27 02:01:50;;;;;;;8.85;6.90;;;;;;;21.07;67.07;100461.28;5061357;28;20029;-26
2022/08/27 02:04:16;;;;;;;7.78;6.82;;;;;;;21.06;67.36;100464.91;5064212;28;20510;-26
2022/08/27 02:06:41;;;;;;;10.43;7.50;;;;;;;21.07;67.46;100450.53;5067246;28;20036;-26
2022/08/27 02:09:06;;;;;;;8.25;7.13;;;;;;;21.06;67.84;100451.50;5066224;28;20548;-26
2022/08/27 02:11:32;;;;;;;7.80;6.38;;;;;;;21.05;67.61;100447.09;5064584;28;20033;-27
2022/08/27 02:13:57;;;;;;;8.13;7.25;;;;;;;21.02;67.49;100432.06;5066885;28;20438;-26
2022/08/27 02:16:22;;;;;;;8.02;6.63;;;;;;;21.02;67.58;100444.59;5062486;28;20090;-26
2022/08/27 02:18:48;;;;;;;7.70;6.90;;;;;;;20.98;67.19;100438.53;5068806;28;20272;-26
2022/08/27 02:21:14;;;;;;;7.78;6.30;;;;;;;21.00;67.34;100443.81;5067871;28;20024;-26
2022/08/27 02:23:40;;;;;;;7.57;6.75;;;;;;;21.01;67.30;100446.41;5071404;28;20490;-26
2022/08/27 02:26:06;;;;;;;9.80;6.90;;;;;;;21.01;67.34;100451.75;5069522;28;20024;-26
2022/08/27 02:28:31;;;;;;;7.47;6.45;;;;;;;20.98;67.27;100451.94;5066874;28;20157;-26
2022/08/27 02:30:56;;;;;;;8.07;6.65;;;;;;;20.99;67.25;100460.84;5068116;28;20390;-27
2022/08/27 02:33:22;;;;;;;7.20;6.50;;;;;;;20.97;67.25;100455.56;5066906;28;20020;-26
2022/08/27 02:35:47;;;;;;;7.28;6.15;;;;;;;20.96;67.13;100452.97;5070348;28;20043;-26
2022/08/27 02:38:12;;;;;;;7.05;6.35;;;;;;;20.94;67.24;100457.56;5067898;28;20032;-26
2022/08/27 02:40:38;;;;;;;6.88;6.18;;;;;;;20.95;67.59;100451.25;5065711;28;20741;-26
2022/08/27 02:43:04;;;;;;;8.82;6.38;;;;;;;20.95;67.53;100457.50;5067718;28;20058;-27
2022/08/27 02:45:30;;;;;;;7.60;6.22;;;;;;;20.96;67.43;100459.22;5063384;28;20025;-27
2022/08/27 02:47:55;;;;;;;7.38;6.60;;;;;;;20.92;67.49;100451.41;5068347;28;20467;-27
2022/08/27 02:50:20;;;;;;;9.15;5.30;;;;;;;20.93;67.15;100458.50;5070748;28;20039;-27
2022/08/27 02:52:46;;;;;;;5.65;5.00;;;;;;;20.94;67.51;100457.56;5070381;28;20036;-26
2022/08/27 02:55:11;;;;;;;5.60;5.15;;;;;;;20.92;67.42;100451.41;5070279;28;20024;-26
2022/08/27 02:57:37;;;;;;;8.27;5.80;;;;;;;20.89;67.54;100453.34;5064563;28;20036;-26
2022/08/27 03:00:06;;;;;;;8.77;5.57;;;;;;;20.88;67.54;100448.91;5063464;28;20054;-26
2022/08/27 03:02:31;;;;;;;7.45;5.75;;;;;;;20.92;68.29;100446.06;5062586;28;20033;-26
2022/08/27 03:04:56;;;;;;;6.35;5.75;;;;;;;20.88;67.62;100451.59;5065052;28;20021;-26
2022/08/27 03:07:23;;;;;;;6.10;5.35;;;;;;;20.87;67.99;100449.84;5070128;28;20021;-26
2022/08/27 03:09:49;;;;;;;6.53;5.18;;;;;;;20.91;67.99;100445.22;5065249;28;20075;-26
2022/08/27 03:12:14;;;;;;;6.05;5.50;;;;;;;20.88;67.81;100448.91;5069596;28;20020;-26
2022/08/27 03:14:40;;;;;;;6.35;5.75;;;;;;;20.86;67.78;100444.56;5063963;28;20392;-27
2022/08/27 03:20:02;;;;;;;7.32;5.80;;;;;;;20.83;67.82;100439.38;5034130;28;20444;-27
2022/08/27 03:22:28;;;;;;;7.82;5.28;;;;;;;20.83;67.91;100437.56;5062686;28;20021;-26
2022/08/27 03:24:54;;;;;;;8.10;6.25;;;;;;;20.82;67.72;100445.69;5067073;28;20040;-27
2022/08/27 03:27:19;;;;;;;6.15;5.10;;;;;;;20.81;67.77;100433.25;5063313;28;20032;-26
2022/08/27 03:29:45;;;;;;;6.35;4.43;;;;;;;20.82;67.70;100434.97;5068542;28;20039;-27
2022/08/27 03:32:10;;;;;;;6.70;5.35;;;;;;;20.81;67.49;100433.25;5068868;28;20024;-26
2022/08/27 03:34:35;;;;;;;5.75;5.20;;;;;;;20.79;67.57;100429.75;5064067;28;20204;-26
2022/08/27 03:37:01;;;;;;;5.60;5.07;;;;;;;20.79;67.74;100430.63;5066723;28;20482;-27
2022/08/27 03:39:26;;;;;;;5.22;4.72;;;;;;;20.79;67.72;100435.13;5067806;28;20460;-27
2022/08/27 03:41:51;;;;;;;7.43;5.13;;;;;;;20.79;67.58;100435.13;5065862;28;20025;-27
2022/08/27 03:44:17;;;;;;;5.57;5.07;;;;;;;20.80;67.54;100431.53;5066490;28;20474;-26
2022/08/27 03:46:42;;;;;;;5.95;5.35;;;;;;;20.76;67.61;100436.16;5064146;28;20033;-27
2022/08/27 03:49:07;;;;;;;6.35;4.80;;;;;;;20.74;67.46;100432.72;5066057;28;20016;-27
2022/08/27 03:51:33;;;;;;;7.30;4.40;;;;;;;20.75;67.54;100434.44;5065302;28;20028;-27
2022/08/27 03:53:58;;;;;;;6.03;5.10;;;;;;;20.79;67.61;100436.00;5061940;28;20131;-27
2022/08/27 03:56:24;;;;;;;5.70;4.30;;;;;;;20.75;67.33;100429.94;5063042;28;20024;-27
2022/08/27 03:58:49;;;;;;;7.40;4.70;;;;;;;20.76;67.31;100428.13;5065512;28;20369;-27
2022/08/27 04:01:16;;;;;;;6.57;5.75;;;;;;;20.75;67.60;100429.94;5059590;28;20492;-27
2022/08/27 04:03:41;;;;;;;8.20;5.35;;;;;;;20.74;67.55;100424.69;5065996;28;20309;-26
2022/08/27 04:06:06;;;;;;;5.57;4.70;;;;;;;20.70;67.85;100426.66;5060511;28;20472;-27
2022/08/27 04:08:32;;;;;;;6.20;5.70;;;;;;;20.75;68.19;100424.56;5065053;28;20499;-27
2022/08/27 04:10:57;;;;;;;7.40;6.70;;;;;;;20.73;67.96;100429.16;5065675;28;20020;-27
2022/08/27 04:13:23;;;;;;;6.60;6.00;;;;;;;20.74;67.67;100427.38;5063354;28;20477;-26
2022/08/27 04:15:50;;;;;;;6.22;5.43;;;;;;;20.75;67.76;100434.44;5066957;28;20027;-27
2022/08/27 04:18:15;;;;;;;6.65;5.85;;;;;;;20.73;68.52;100437.22;5066034;28;20036;-27
2022/08/27 04:20:44;;;;;;;6.18;5.32;;;;;;;20.71;68.25;100422.19;5061182;28;20024;-27
2022/08/27 04:23:10;;;;;;;8.15;6.28;;;;;;;20.75;69.27;100423.72;5067052;28;20031;-27
2022/08/27 04:25:42;;;;;;;10.18;7.82;;;;;;;20.70;68.67;100436.50;5066013;28;20371;-27
2022/08/27 04:28:10;;;;;;;11.70;7.88;;;;;;;20.68;69.78;100439.28;5064976;28;20112;-27
2022/08/27 04:30:39;;;;;;;10.52;8.23;;;;;;;20.69;69.94;100430.28;5066936;28;20074;-27
2022/08/27 04:33:05;;;;;;;11.88;9.50;;;;;;;20.68;69.53;100433.94;5064686;28;20431;-27
2022/08/27 04:35:30;;;;;;;12.73;10.13;;;;;;;20.70;69.57;100442.72;5064954;28;20506;-27
2022/08/27 04:37:56;;;;;;;15.40;10.88;;;;;;;20.69;69.97;100434.78;5063879;28;20107;-27
2022/08/27 04:40:21;;;;;;;13.63;11.05;;;;;;;20.69;70.03;100445.50;5064057;28;20369;-27
2022/08/27 04:43:07;;;;;;;14.23;12.00;;;;;;;20.69;70.15;100445.50;5062663;28;20036;-27
2022/08/27 04:45:32;;;;;;;13.57;11.02;;;;;;;20.69;70.29;100445.50;5061472;28;20020;-26
2022/08/27 04:47:58;;;;;;;15.43;11.73;;;;;;;20.69;70.25;100448.19;5066185;28;20502;-27
2022/08/27 04:50:23;;;;;;;17.85;12.02;;;;;;;20.70;70.38;100445.41;5063176;28;20316;-26
2022/08/27 04:52:49;;;;;;;16.80;13.05;;;;;;;20.69;70.48;100435.66;5063599;28;20058;-26
2022/08/27 04:55:14;;;;;;;16.35;12.82;;;;;;;20.69;70.34;100446.38;5058467;28;20040;-27
2022/08/27 04:57:39;;;;;;;18.02;13.65;;;;;;;20.71;70.90;100447.13;5060545;28;20173;-27
2022/08/27 05:00:07;;;;;;;20.83;15.52;;;;;;;20.69;70.77;100443.69;5068505;28;20174;-27
2022/08/27 05:02:32;;;;;;;18.45;14.13;;;;;;;20.71;71.28;100438.25;5062532;28;20082;-26
2022/08/27 05:04:57;;;;;;;21.00;16.10;;;;;;;20.70;70.60;100445.41;5061910;28;20062;-26
2022/08/27 05:07:23;;;;;;;20.27;15.57;;;;;;;20.73;72.43;100441.69;5058206;28;20035;-27
2022/08/27 05:09:48;;;;;;;19.90;15.10;;;;;;;20.72;71.42;100443.53;5063704;28;20071;-27
2022/08/27 05:12:13;;;;;;;23.13;15.60;;;;;;;20.73;71.85;100447.94;5063519;28;20099;-26
2022/08/27 05:14:39;;;;;;;23.10;15.50;;;;;;;20.75;71.41;100448.69;5062423;28;20111;-26
2022/08/27 05:17:04;;;;;;;19.58;14.73;;;;;;;20.76;71.40;100444.22;5065174;28;20314;-27
2022/08/27 05:19:30;;;;;;;20.65;15.60;;;;;;;20.77;71.81;100448.59;5065624;28;20028;-26
2022/08/27 05:21:55;;;;;;;23.35;15.95;;;;;;;20.79;72.63;100444.03;5065605;28;20479;-26
2022/08/27 05:24:21;;;;;;;20.73;15.20;;;;;;;20.80;72.45;100453.81;5062794;28;20025;-26
2022/08/27 05:26:47;;;;;;;22.67;16.83;;;;;;;20.80;71.74;100447.59;5069605;28;20025;-27
2022/08/27 05:29:13;;;;;;;24.48;16.80;;;;;;;20.79;71.92;100446.72;5066658;28;20028;-26
2022/08/27 05:31:39;;;;;;;23.42;17.25;;;;;;;20.81;72.21;100452.84;5067837;28;20078;-27
2022/08/27 05:34:05;;;;;;;25.30;16.27;;;;;;;20.81;71.64;100458.19;5065923;28;20032;-26
2022/08/27 05:36:33;;;;;;;18.83;15.10;;;;;;;20.82;71.55;100449.22;5067469;28;20346;-26
2022/08/27 05:39:00;;;;;;;21.08;16.95;;;;;;;20.83;71.80;100459.00;5064722;28;20108;-27
2022/08/27 05:41:29;;;;;;;23.02;16.50;;;;;;;20.83;71.61;100453.63;5063704;28;20100;-27
2022/08/27 05:43:56;;;;;;;24.85;16.10;;;;;;;20.83;71.89;100453.63;5062418;28;20527;-27
2022/08/27 05:46:23;;;;;;;21.67;16.38;;;;;;;20.84;72.24;100454.50;5066747;28;20032;-27
2022/08/27 05:48:50;;;;;;;24.45;15.75;;;;;;;20.84;71.98;100455.34;5067569;28;20028;-27
2022/08/27 05:51:31;;;;;;;23.17;16.45;;;;;;;20.86;71.66;100447.22;5065161;28;20468;-26
2022/08/27 05:54:00;;;;;;;22.40;16.52;;;;;;;20.85;72.48;100462.47;5067165;28;20617;-27
2022/08/27 05:56:27;;;;;;;21.42;15.48;;;;;;;20.84;71.79;100454.50;5068905;28;20337;-27
2022/08/27 06:01:41;;;;;;;20.30;16.92;;;;;;;20.85;72.25;100451.75;5070014;28;20392;-27
2022/08/27 06:04:07;;;;;;;21.65;16.05;;;;;;;20.84;72.43;100454.50;5067862;28;20511;-27
2022/08/27 06:06:34;;;;;;;20.83;15.50;;;;;;;20.87;72.49;100455.19;5061071;28;20028;-26
2022/08/27 06:09:00;;;;;;;21.73;15.10;;;;;;;20.85;72.52;100454.44;5067254;28;20032;-27
2022/08/27 06:11:25;;;;;;;18.80;15.85;;;;;;;20.85;72.73;100457.09;5067392;28;20400;-27
2022/08/27 06:13:50;;;;;;;18.42;14.25;;;;;;;20.87;72.98;100454.31;5067751;28;20032;-26
2022/08/27 06:16:17;;;;;;;19.48;15.13;;;;;;;20.87;72.75;100446.28;5067418;28;20043;-27
2022/08/27 06:18:45;;;;;;;19.42;14.93;;;;;;;20.89;72.71;100450.66;5062979;28;20036;-27
2022/08/27 06:21:11;;;;;;;15.38;13.25;;;;;;;20.91;72.99;100460.41;5064656;28;20025;-27
2022/08/27 06:23:37;;;;;;;19.33;14.13;;;;;;;20.91;72.96;100450.56;5066422;28;20017;-26
2022/08/27 06:26:08;;;;;;;15.77;11.95;;;;;;;20.89;72.89;100461.38;5063708;28;20403;-26
2022/08/27 06:28:34;;;;;;;15.48;11.25;;;;;;;20.91;72.37;100457.75;5061394;28;20031;-27
2022/08/27 06:31:08;;;;;;;13.32;10.38;;;;;;;20.92;72.79;100454.09;5046315;28;20024;-27
2022/08/27 06:33:33;;;;;;;14.40;10.93;;;;;;;20.91;73.11;100455.06;5062857;28;20388;-27
2022/08/27 06:36:05;;;;;;;16.52;11.23;;;;;;;20.91;73.09;100466.66;5067329;28;20063;-27
2022/08/27 06:38:31;;;;;;;11.55;9.77;;;;;;;20.89;73.17;100461.38;5062456;28;20051;-27
2022/08/27 06:40:57;;;;;;;13.63;9.48;;;;;;;20.91;73.19;100468.47;5061773;28;20103;-27
2022/08/27 06:43:23;;;;;;;12.00;10.00;;;;;;;20.90;73.10;100462.22;5066266;28;20449;-27
2022/08/27 06:45:48;;;;;;;10.85;9.10;;;;;;;20.90;72.85;100470.25;5065127;28;20643;-27
2022/08/27 06:48:14;;;;;;;9.48;8.48;;;;;;;20.90;73.35;100464.91;5064980;28;20112;-27
2022/08/27 06:50:41;;;;;;;10.85;8.73;;;;;;;20.89;73.28;100473.91;5065619;28;20080;-26
2022/08/27 06:53:06;;;;;;;10.85;8.43;;;;;;;20.88;73.14;100473.03;5063045;28;20029;-27
2022/08/27 06:55:32;;;;;;;10.05;8.18;;;;;;;20.88;73.01;100481.06;5067030;28;20025;-27
2022/08/27 06:57:57;;;;;;;9.65;8.60;;;;;;;20.89;72.82;100485.50;5066657;28;20496;-27
2022/08/27 07:00:23;;;;;;;8.85;7.50;;;;;;;20.90;73.15;100483.66;5066439;28;20024;-27
2022/08/27 07:02:49;;;;;;;10.30;8.20;;;;;;;20.91;73.34;100492.59;5065730;28;20111;-26
2022/08/27 07:05:14;;;;;;;9.90;8.07;;;;;;;20.88;73.11;100489.09;5065013;28;20035;-27
2022/08/27 07:07:40;;;;;;;12.85;8.65;;;;;;;20.89;73.07;100489.97;5066852;28;20036;-26
2022/08/27 07:10:06;;;;;;;8.20;7.07;;;;;;;20.88;72.92;100483.75;5066773;28;20081;-26
2022/08/27 07:12:31;;;;;;;11.73;7.70;;;;;;;20.88;72.75;100489.09;5060646;28;20032;-27
2022/08/27 07:14:57;;;;;;;8.98;8.07;;;;;;;20.87;72.92;100490.03;5065859;28;20059;-26
2022/08/27 07:17:22;;;;;;;12.73;8.60;;;;;;;20.88;72.55;100493.59;5069171;28;20021;-27
2022/08/27 07:19:48;;;;;;;9.45;8.18;;;;;;;20.88;72.90;100490.91;5068821;28;20472;-27
2022/08/27 07:22:13;;;;;;;9.40;8.40;;;;;;;20.88;72.97;100505.19;5061931;28;20016;-26
2022/08/27 07:24:39;;;;;;;12.35;8.45;;;;;;;20.87;72.75;100500.75;5058223;28;20455;-27
2022/08/27 07:27:05;;;;;;;10.18;8.73;;;;;;;20.89;73.35;100506.94;5066728;28;20020;-27
2022/08/27 07:29:31;;;;;;;10.15;8.07;;;;;;;20.88;72.85;100507.88;5063869;28;20032;-27
2022/08/27 07:31:57;;;;;;;10.02;8.13;;;;;;;20.88;73.59;100505.19;5065599;28;20379;-27
2022/08/27 07:34:22;;;;;;;13.23;8.77;;;;;;;20.89;73.66;100506.94;5061003;28;20036;-27
2022/08/27 07:36:48;;;;;;;11.45;9.38;;;;;;;20.91;73.77;100504.19;5061241;28;20116;-26
2022/08/27 07:39:15;;;;;;;10.48;8.15;;;;;;;20.92;73.62;100505.03;5066731;28;20112;-27
2022/08/27 07:44:25;;;;;;;13.95;8.32;;;;;;;20.93;73.70;100512.97;5064373;28;20755;-27
2022/08/27 07:46:51;;;;;;;11.05;8.52;;;;;;;20.93;73.73;100506.75;5064534;28;20020;-27
2022/08/27 07:49:17;;;;;;;11.20;8.90;;;;;;;20.93;73.51;100514.78;5061639;28;20442;-27
2022/08/27 07:51:43;;;;;;;13.45;7.82;;;;;;;20.94;73.80;100511.19;5067535;28;20095;-27
2022/08/27 07:54:08;;;;;;;10.93;7.70;;;;;;;20.96;74.40;100509.25;5062872;28;20108;-26
2022/08/27 07:56:34;;;;;;;13.32;8.75;;;;;;;20.96;74.05;100506.59;5065322;28;20016;-27
2022/08/27 07:58:59;;;;;;;12.05;8.98;;;;;;;20.97;74.43;100509.19;5062881;28;20369;-27
2022/08/27 08:01:25;;;;;;;9.98;8.23;;;;;;;20.97;74.22;100516.38;5064216;28;20056;-26
2022/08/27 08:03:50;;;;;;;10.95;7.88;;;;;;;20.98;74.54;100515.41;5062818;28;20043;-26
2022/08/27 08:06:16;;;;;;;9.07;7.88;;;;;;;20.99;74.13;100517.13;5065197;28;20036;-26
2022/08/27 08:08:42;;;;;;;12.85;8.88;;;;;;;21.01;74.32;100517.94;5067342;28;22031;-27
2022/08/27 08:11:10;;;;;;;13.63;8.90;;;;;;;21.00;74.55;100521.53;5065190;28;20028;-26
2022/08/27 08:13:35;;;;;;;9.75;8.73;;;;;;;21.01;74.72;100520.63;5080447;28;20035;-26
2022/08/27 08:16:01;;;;;;;11.35;9.27;;;;;;;21.02;75.27;100516.97;5067150;28;20021;-27
2022/08/27 08:18:27;;;;;;;13.02;9.20;;;;;;;21.04;75.29;100517.72;5063351;28;20106;-26
2022/08/27 08:20:58;;;;;;;12.98;9.00;;;;;;;21.05;74.74;100519.50;5063373;28;20060;-27
2022/08/27 08:23:23;;;;;;;10.90;9.30;;;;;;;21.06;74.83;100523.88;5061330;28;20110;-27
2022/08/27 08:25:49;;;;;;;11.52;9.07;;;;;;;21.07;74.75;100530.97;5066418;28;20063;-27
2022/08/27 08:28:14;;;;;;;12.35;8.48;;;;;;;21.07;74.41;100530.97;5065069;28;20064;-26
2022/08/27 08:30:42;;;;;;;12.48;9.50;;;;;;;21.09;74.90;100539.81;5063431;28;20525;-27
2022/08/27 08:33:07;;;;;;;10.70;8.63;;;;;;;21.09;74.75;100534.44;5066419;28;20336;-27
2022/08/27 08:35:33;;;;;;;10.95;8.05;;;;;;;21.11;74.56;100529.00;5063707;28;20429;-26
2022/08/27 08:37:58;;;;;;;10.68;9.23;;;;;;;21.09;74.53;100539.81;5062623;28;20032;-26
2022/08/27 08:40:26;;;;;;;12.15;8.85;;;;;;;21.11;74.49;100539.72;5064542;28;20112;-27
2022/08/27 08:42:53;;;;;;;10.95;8.27;;;;;;;21.11;74.29;100537.06;5065843;28;20025;-27
2022/08/27 08:45:24;;;;;;;12.57;8.68;;;;;;;21.11;74.40;100543.25;5063796;28;20048;-26
2022/08/27 08:47:54;;;;;;;14.18;9.25;;;;;;;21.09;74.49;100545.19;5066877;28;20024;-26
2022/08/27 08:50:35;;;;;;;12.73;9.30;;;;;;;21.10;74.62;100541.53;5062761;28;20043;-27
2022/08/27 08:53:29;;;;;;;12.48;9.63;;;;;;;21.09;74.54;100545.19;5062440;28;20037;-26
2022/08/27 08:56:00;;;;;;;12.57;8.77;;;;;;;21.11;74.36;100548.63;5063271;28;20115;-27
2022/08/27 08:58:38;;;;;;;11.85;9.25;;;;;;;21.10;74.37;100546.91;5060216;28;20078;-27
2022/08/27 09:01:06;;;;;;;10.75;8.65;;;;;;;21.11;74.55;100553.13;5067331;28;20131;-27
2022/08/27 09:03:34;;;;;;;11.90;7.97;;;;;;;21.10;74.30;100546.03;5064482;28;20063;-27
2022/08/27 09:06:06;;;;;;;10.65;7.32;;;;;;;21.10;74.37;100548.69;5069368;28;20033;-26
2022/08/27 09:08:35;;;;;;;10.85;8.98;;;;;;;21.09;74.38;100549.66;5070474;28;20047;-27
2022/08/27 09:11:33;;;;;;;11.50;8.05;;;;;;;21.11;74.23;100553.13;5065645;28;20016;-27
2022/08/27 09:14:21;;;;;;;11.80;8.52;;;;;;;21.08;74.26;100556.84;5068414;28;20032;-27
2022/08/27 09:16:47;;;;;;;7.80;7.00;;;;;;;21.09;74.25;100553.22;5069300;28;20511;-26
2022/08/27 09:19:12;;;;;;;12.25;7.97;;;;;;;21.09;74.13;100545.19;5068762;28;20024;-27
2022/08/27 09:21:48;;;;;;;10.13;8.55;;;;;;;21.10;74.23;100546.03;5068231;28;20430;-26
2022/08/27 09:24:25;;;;;;;11.23;7.85;;;;;;;21.10;74.29;100554.94;5070994;28;20046;-26
2022/08/27 09:26:50;;;;;;;10.95;8.10;;;;;;;21.11;74.00;100553.97;5068914;28;20024;-27
2022/08/27 09:29:19;;;;;;;8.38;7.32;;;;;;;21.11;74.03;100553.13;5067115;28;20028;-26
2022/08/27 09:31:44;;;;;;;9.57;7.80;;;;;;;21.11;74.13;100551.31;5066808;28;20111;-27
2022/08/27 09:34:10;;;;;;;9.20;8.10;;;;;;;21.13;74.15;100551.22;5068479;28;20108;-26
2022/08/27 09:36:51;;;;;;;8.10;7.30;;;;;;;21.15;74.75;100563.59;5066453;28;20028;-27
2022/08/27 09:39:16;;;;;;;;;;;;;;;21.17;74.24;100554.59;5068089;28;20028;-27
2022/08/27 09:41:44;;;;;;;11.02;7.93;;;;;;;21.19;74.20;100558.94;5062907;28;20292;-27
2022/08/27 09:44:12;;;;;;;8.27;7.20;;;;;;;21.22;74.46;100552.53;5066768;28;20024;-26
2022/08/27 09:46:38;;;;;;;11.27;7.47;;;;;;;21.23;73.95;100551.56;5067803;28;20111;-27
2022/08/27 09:49:14;;;;;;;12.60;7.88;;;;;;;21.24;74.77;100547.97;5067049;28;20448;-27
2022/08/27 09:51:41;;;;;;;11.90;7.15;;;;;;;21.27;74.37;100548.63;5068334;28;20433;-26
2022/08/27 09:54:07;;;;;;;10.80;7.28;;;;;;;21.28;74.69;100550.34;5069067;28;20025;-26
2022/08/27 09:56:38;;;;;;;10.05;7.35;;;;;;;21.33;74.99;100552.78;5067306;28;20078;-27
2022/08/27 09:59:14;;;;;;;7.47;6.20;;;;;;;21.37;75.13;100543.63;5059708;28;20024;-27
2022/08/27 10:01:50;;;;;;;11.02;6.95;;;;;;;21.40;75.05;100539.88;5068198;28;20043;-27
2022/08/27 10:04:22;;;;;;;10.57;7.55;;;;;;;21.43;75.27;100542.41;5066739;28;20552;-26
2022/08/27 10:06:49;;;;;;;8.65;6.95;;;;;;;21.48;75.71;100543.00;5062743;28;20526;-26
2022/08/27 10:09:19;;;;;;;9.05;8.07;;;;;;;21.56;75.67;100542.56;5063159;28;20035;-26
2022/08/27 10:12:09;;;;;;;8.35;7.15;;;;;;;21.65;74.97;100542.00;5064586;28;20039;-25
2022/08/27 10:14:42;;;;;;;10.02;8.73;;;;;;;21.72;75.02;100541.66;5061349;28;20039;-26
2022/08/27 10:17:28;;;;;;;7.75;6.57;;;;;;;21.81;74.47;100543.88;5064328;28;20301;-27
2022/08/27 10:20:14;;;;;;;7.40;6.38;;;;;;;21.85;74.23;100540.03;5063938;28;20029;-26
2022/08/27 10:22:42;;;;;;;9.93;6.95;;;;;;;21.91;73.95;100542.34;5061835;28;20028;-26
2022/08/27 10:25:14;;;;;;;7.28;6.10;;;;;;;21.96;73.80;100538.50;5063374;28;20391;-26
2022/08/27 10:28:03;;;;;;;7.93;6.07;;;;;;;21.99;73.64;100538.34;5067487;28;20028;-26
2022/08/27 10:30:45;;;;;;;8.90;7.35;;;;;;;22.01;73.66;100537.28;5062659;28;20031;-27
2022/08/27 10:33:15;;;;;;;7.97;6.10;;;;;;;22.08;73.67;100537.81;5068303;28;20411;-26
2022/08/27 10:36:23;;;;;;;6.70;6.03;;;;;;;22.13;73.32;100530.31;5065931;28;20373;-26
2022/08/27 10:38:53;;;;;;;9.85;7.03;;;;;;;22.21;73.63;100534.38;5058958;28;20572;-26
2022/08/27 10:41:27;;;;;;;8.38;7.00;;;;;;;22.26;72.95;100537.63;5062458;28;20427;-26
2022/08/27 10:44:20;;;;;;;10.80;6.40;;;;;;;22.35;72.81;100541.59;5064176;28;20455;-26
2022/08/27 10:46:54;;;;;;;7.20;6.18;;;;;;;22.38;72.52;100542.25;5065927;28;20143;-26
2022/08/27 10:49:53;;;;;;;9.73;6.90;;;;;;;22.43;72.50;100541.97;5063539;28;20043;-27
2022/08/27 10:52:18;;;;;;;10.65;6.80;;;;;;;22.47;72.20;100543.50;5060528;28;20021;-27
2022/08/27 10:55:00;;;;;;;7.25;6.47;;;;;;;22.51;71.92;100544.22;5066558;28;20027;-26
2022/08/27 10:57:51;;;;;;;9.90;6.45;;;;;;;22.53;72.10;100548.53;5063509;28;20047;-26
2022/08/27 11:00:19;;;;;;;7.63;5.80;;;;;;;22.58;71.53;100545.59;5060721;28;20024;-26
2022/08/27 11:02:50;;;;;;;9.68;6.47;;;;;;;22.61;71.82;100539.16;5067813;28;20074;-26
2022/08/27 11:05:22;;;;;;;9.95;7.35;;;;;;;22.65;71.75;100541.56;5065972;28;20028;-26
2022/08/27 11:08:19;;;;;;;8.57;7.00;;;;;;;22.68;71.45;100545.88;5063652;28;20285;-27
2022/08/27 11:10:51;;;;;;;10.30;7.10;;;;;;;22.68;71.75;100538.66;5061847;28;20036;-27
2022/08/27 11:13:28;;;;;;;10.93;7.30;;;;;;;22.75;71.86;100551.72;5063218;28;20024;-26
2022/08/27 11:15:55;;;;;;;9.82;7.95;;;;;;;22.76;71.53;100538.19;5064711;28;20040;-27
2022/08/27 11:18:48;;;;;;;7.93;6.55;;;;;;;22.79;71.49;100555.94;5064921;28;20029;-26
2022/08/27 11:21:24;;;;;;;12.48;7.40;;;;;;;22.85;71.47;100555.56;5065772;28;20052;-26
2022/08/27 11:23:56;;;;;;;9.98;7.10;;;;;;;22.89;71.31;100553.53;5063514;28;20024;-26
2022/08/27 11:26:22;;;;;;;8.80;7.78;;;;;;;22.91;71.33;100552.47;5067481;28;20116;-27
2022/08/27 11:28:51;;;;;;;12.98;7.85;;;;;;;22.94;71.43;100554.97;5060478;28;20120;-26
2022/08/27 11:31:19;;;;;;;9.50;6.93;;;;;;;22.97;71.27;100551.22;5060660;28;20039;-27
2022/08/27 11:34:09;;;;;;;10.90;7.78;;;;;;;23.04;71.40;100557.09;5059332;28;20697;-26